sensor_id;sensor_type;location;lat;lon;timestamp;P1;durP1;ratioP1;P2;durP2;ratioP2
1885;SDS011;943;51.568;6.998;2023-05-07T00:01:06;20.63;;;18.43;;
1885;SDS011;943;51.568;6.998;2023-05-07T00:03:34;19.03;;;17.13;;
1885;SDS011;943;51.568;6.998;2023-05-07T00:06:03;21.77;;;19.37;;
1885;SDS011;943;51.568;6.998;2023-05-07T00:08:31;22.73;;;20.30;;
1885;SDS011;943;51.568;6.998;2023-05-07T00:10:58;23.37;;;20.77;;
1885;SDS011;943;51.568;6.998;2023-05-07T00:13:26;23.17;;;20.87;;
1885;SDS011;943;51.568;6.998;2023-05-07T00:15:57;25.13;;;21.40;;
1885;SDS011;943;51.568;6.998;2023-05-07T00:18:24;24.63;;;19.50;;
1885;SDS011;943;51.568;6.998;2023-05-07T00:20:52;21.83;;;19.23;;
1885;SDS011;943;51.568;6.998;2023-05-07T00:23:20;24.40;;;20.50;;
1885;SDS011;943;51.568;6.998;2023-05-07T00:25:49;21.87;;;19.30;;
1885;SDS011;943;51.568;6.998;2023-05-07T00:28:16;20.83;;;18.63;;
1885;SDS011;943;51.568;6.998;2023-05-07T00:30:44;23.93;;;19.63;;
1885;SDS011;943;51.568;6.998;2023-05-07T00:33:12;21.57;;;19.27;;
1885;SDS011;943;51.568;6.998;2023-05-07T00:35:39;24.00;;;21.50;;
1885;SDS011;943;51.568;6.998;2023-05-07T00:38:09;23.20;;;19.03;;
1885;SDS011;943;51.568;6.998;2023-05-07T00:40:36;25.63;;;22.30;;
1885;SDS011;943;51.568;6.998;2023-05-07T00:43:04;26.50;;;21.17;;
1885;SDS011;943;51.568;6.998;2023-05-07T00:45:33;22.30;;;18.87;;
1885;SDS011;943;51.568;6.998;2023-05-07T00:48:01;28.77;;;21.97;;
1885;SDS011;943;51.568;6.998;2023-05-07T00:50:31;25.50;;;22.77;;
1885;SDS011;943;51.568;6.998;2023-05-07T00:53:00;23.77;;;21.20;;
1885;SDS011;943;51.568;6.998;2023-05-07T00:55:28;24.83;;;20.10;;
1885;SDS011;943;51.568;6.998;2023-05-07T00:57:57;23.90;;;20.80;;
1885;SDS011;943;51.568;6.998;2023-05-07T01:00:25;26.13;;;21.37;;
1885;SDS011;943;51.568;6.998;2023-05-07T01:02:53;30.90;;;22.43;;
1885;SDS011;943;51.568;6.998;2023-05-07T01:05:22;23.50;;;21.03;;
1885;SDS011;943;51.568;6.998;2023-05-07T01:07:53;32.87;;;23.73;;
1885;SDS011;943;51.568;6.998;2023-05-07T01:10:24;23.93;;;21.43;;
1885;SDS011;943;51.568;6.998;2023-05-07T01:12:54;34.23;;;23.37;;
1885;SDS011;943;51.568;6.998;2023-05-07T01:15:24;26.73;;;22.83;;
1885;SDS011;943;51.568;6.998;2023-05-07T01:17:52;28.00;;;23.30;;
1885;SDS011;943;51.568;6.998;2023-05-07T01:20:27;29.47;;;24.57;;
1885;SDS011;943;51.568;6.998;2023-05-07T01:22:56;36.10;;;26.90;;
1885;SDS011;943;51.568;6.998;2023-05-07T01:25:26;27.60;;;24.70;;
1885;SDS011;943;51.568;6.998;2023-05-07T01:27:57;31.40;;;25.77;;
1885;SDS011;943;51.568;6.998;2023-05-07T01:30:32;30.53;;;26.30;;
1885;SDS011;943;51.568;6.998;2023-05-07T01:33:08;30.33;;;25.53;;
1885;SDS011;943;51.568;6.998;2023-05-07T01:35:43;29.43;;;24.80;;
1885;SDS011;943;51.568;6.998;2023-05-07T01:38:20;31.10;;;26.23;;
1885;SDS011;943;51.568;6.998;2023-05-07T01:40:50;30.70;;;26.00;;
1885;SDS011;943;51.568;6.998;2023-05-07T01:43:19;29.67;;;25.63;;
1885;SDS011;943;51.568;6.998;2023-05-07T01:45:47;27.30;;;24.40;;
1885;SDS011;943;51.568;6.998;2023-05-07T01:48:16;30.40;;;26.13;;
1885;SDS011;943;51.568;6.998;2023-05-07T01:50:45;34.13;;;24.87;;
1885;SDS011;943;51.568;6.998;2023-05-07T01:53:14;32.67;;;25.40;;
1885;SDS011;943;51.568;6.998;2023-05-07T01:55:44;26.20;;;23.07;;
1885;SDS011;943;51.568;6.998;2023-05-07T01:58:14;29.10;;;26.03;;
1885;SDS011;943;51.568;6.998;2023-05-07T02:00:42;29.03;;;24.67;;
1885;SDS011;943;51.568;6.998;2023-05-07T02:03:10;30.20;;;24.77;;
1885;SDS011;943;51.568;6.998;2023-05-07T02:05:45;27.90;;;24.90;;
1885;SDS011;943;51.568;6.998;2023-05-07T02:08:34;26.63;;;22.73;;
1885;SDS011;943;51.568;6.998;2023-05-07T02:11:03;28.13;;;23.90;;
1885;SDS011;943;51.568;6.998;2023-05-07T02:13:32;27.70;;;24.70;;
1885;SDS011;943;51.568;6.998;2023-05-07T02:16:01;29.23;;;24.40;;
1885;SDS011;943;51.568;6.998;2023-05-07T02:18:30;30.37;;;24.70;;
1885;SDS011;943;51.568;6.998;2023-05-07T02:20:58;28.60;;;25.50;;
1885;SDS011;943;51.568;6.998;2023-05-07T02:23:26;30.43;;;25.27;;
1885;SDS011;943;51.568;6.998;2023-05-07T02:25:54;26.07;;;23.33;;
1885;SDS011;943;51.568;6.998;2023-05-07T02:28:22;28.00;;;25.10;;
1885;SDS011;943;51.568;6.998;2023-05-07T02:30:57;30.87;;;25.43;;
1885;SDS011;943;51.568;6.998;2023-05-07T02:33:28;28.17;;;25.23;;
1885;SDS011;943;51.568;6.998;2023-05-07T02:35:57;29.00;;;25.87;;
1885;SDS011;943;51.568;6.998;2023-05-07T02:38:44;30.50;;;24.90;;
1885;SDS011;943;51.568;6.998;2023-05-07T02:41:11;29.43;;;25.80;;
1885;SDS011;943;51.568;6.998;2023-05-07T02:43:39;32.30;;;26.07;;
1885;SDS011;943;51.568;6.998;2023-05-07T02:46:07;31.50;;;25.70;;
1885;SDS011;943;51.568;6.998;2023-05-07T02:48:40;27.63;;;24.63;;
1885;SDS011;943;51.568;6.998;2023-05-07T02:51:08;29.77;;;25.30;;
1885;SDS011;943;51.568;6.998;2023-05-07T02:53:38;29.77;;;25.93;;
1885;SDS011;943;51.568;6.998;2023-05-07T02:56:06;33.63;;;28.90;;
1885;SDS011;943;51.568;6.998;2023-05-07T02:58:34;32.30;;;27.57;;
1885;SDS011;943;51.568;6.998;2023-05-07T03:01:03;36.17;;;28.13;;
1885;SDS011;943;51.568;6.998;2023-05-07T03:03:51;32.30;;;27.87;;
1885;SDS011;943;51.568;6.998;2023-05-07T03:06:21;33.20;;;27.17;;
1885;SDS011;943;51.568;6.998;2023-05-07T03:08:48;34.80;;;28.27;;
1885;SDS011;943;51.568;6.998;2023-05-07T03:11:16;37.13;;;28.73;;
1885;SDS011;943;51.568;6.998;2023-05-07T03:13:44;33.53;;;27.77;;
1885;SDS011;943;51.568;6.998;2023-05-07T03:16:12;33.60;;;28.07;;
1885;SDS011;943;51.568;6.998;2023-05-07T03:18:40;37.20;;;28.80;;
1885;SDS011;943;51.568;6.998;2023-05-07T03:21:07;34.37;;;28.53;;
1885;SDS011;943;51.568;6.998;2023-05-07T03:23:36;35.60;;;27.97;;
1885;SDS011;943;51.568;6.998;2023-05-07T03:26:04;37.27;;;30.77;;
1885;SDS011;943;51.568;6.998;2023-05-07T03:28:32;34.80;;;27.50;;
1885;SDS011;943;51.568;6.998;2023-05-07T03:31:03;35.03;;;28.43;;
1885;SDS011;943;51.568;6.998;2023-05-07T03:33:35;39.03;;;29.20;;
1885;SDS011;943;51.568;6.998;2023-05-07T03:36:22;37.17;;;29.97;;
1885;SDS011;943;51.568;6.998;2023-05-07T03:38:54;37.17;;;30.47;;
1885;SDS011;943;51.568;6.998;2023-05-07T03:41:24;32.77;;;28.53;;
1885;SDS011;943;51.568;6.998;2023-05-07T03:43:53;32.30;;;28.20;;
1885;SDS011;943;51.568;6.998;2023-05-07T03:46:21;34.33;;;28.60;;
1885;SDS011;943;51.568;6.998;2023-05-07T03:48:49;38.13;;;28.80;;
1885;SDS011;943;51.568;6.998;2023-05-07T03:51:18;37.53;;;30.70;;
1885;SDS011;943;51.568;6.998;2023-05-07T03:53:46;33.87;;;27.87;;
1885;SDS011;943;51.568;6.998;2023-05-07T03:56:13;35.67;;;28.87;;
1885;SDS011;943;51.568;6.998;2023-05-07T03:58:44;34.00;;;26.70;;
1885;SDS011;943;51.568;6.998;2023-05-07T04:01:12;32.53;;;26.17;;
1885;SDS011;943;51.568;6.998;2023-05-07T04:03:40;34.63;;;27.23;;
1885;SDS011;943;51.568;6.998;2023-05-07T04:06:08;31.43;;;27.10;;
1885;SDS011;943;51.568;6.998;2023-05-07T04:08:36;39.13;;;28.07;;
1885;SDS011;943;51.568;6.998;2023-05-07T04:11:05;30.97;;;25.90;;
1885;SDS011;943;51.568;6.998;2023-05-07T04:13:34;33.07;;;25.53;;
1885;SDS011;943;51.568;6.998;2023-05-07T04:16:05;32.93;;;27.30;;
1885;SDS011;943;51.568;6.998;2023-05-07T04:18:35;35.37;;;28.97;;
1885;SDS011;943;51.568;6.998;2023-05-07T04:21:03;29.80;;;25.83;;
1885;SDS011;943;51.568;6.998;2023-05-07T04:23:35;35.37;;;26.20;;
1885;SDS011;943;51.568;6.998;2023-05-07T04:26:07;32.93;;;28.03;;
1885;SDS011;943;51.568;6.998;2023-05-07T04:28:38;29.80;;;24.87;;
1885;SDS011;943;51.568;6.998;2023-05-07T04:31:07;28.77;;;25.57;;
1885;SDS011;943;51.568;6.998;2023-05-07T04:33:36;28.87;;;23.90;;
1885;SDS011;943;51.568;6.998;2023-05-07T04:36:07;29.20;;;25.07;;
1885;SDS011;943;51.568;6.998;2023-05-07T04:38:42;32.03;;;24.50;;
1885;SDS011;943;51.568;6.998;2023-05-07T04:41:12;27.10;;;24.20;;
1885;SDS011;943;51.568;6.998;2023-05-07T04:43:40;30.50;;;24.40;;
1885;SDS011;943;51.568;6.998;2023-05-07T04:46:09;30.33;;;24.50;;
1885;SDS011;943;51.568;6.998;2023-05-07T04:48:38;26.50;;;23.47;;
1885;SDS011;943;51.568;6.998;2023-05-07T04:51:07;23.87;;;20.97;;
1885;SDS011;943;51.568;6.998;2023-05-07T04:53:34;24.50;;;20.87;;
1885;SDS011;943;51.568;6.998;2023-05-07T04:56:04;26.03;;;21.07;;
1885;SDS011;943;51.568;6.998;2023-05-07T04:58:38;22.97;;;19.97;;
1885;SDS011;943;51.568;6.998;2023-05-07T05:01:07;21.87;;;18.93;;
1885;SDS011;943;51.568;6.998;2023-05-07T05:03:36;24.37;;;18.77;;
1885;SDS011;943;51.568;6.998;2023-05-07T05:06:07;21.43;;;18.13;;
1885;SDS011;943;51.568;6.998;2023-05-07T05:08:37;23.50;;;18.87;;
1885;SDS011;943;51.568;6.998;2023-05-07T05:11:06;22.03;;;17.50;;
1885;SDS011;943;51.568;6.998;2023-05-07T05:13:35;19.53;;;15.73;;
1885;SDS011;943;51.568;6.998;2023-05-07T05:16:11;18.27;;;16.40;;
1885;SDS011;943;51.568;6.998;2023-05-07T05:18:41;19.50;;;16.43;;
1885;SDS011;943;51.568;6.998;2023-05-07T05:21:11;20.60;;;18.50;;
1885;SDS011;943;51.568;6.998;2023-05-07T05:23:41;19.20;;;16.73;;
1885;SDS011;943;51.568;6.998;2023-05-07T05:26:11;19.30;;;17.23;;
1885;SDS011;943;51.568;6.998;2023-05-07T05:28:40;19.77;;;16.83;;
1885;SDS011;943;51.568;6.998;2023-05-07T05:31:07;19.20;;;16.27;;
1885;SDS011;943;51.568;6.998;2023-05-07T05:33:36;22.77;;;16.00;;
1885;SDS011;943;51.568;6.998;2023-05-07T05:36:04;18.23;;;16.33;;
1885;SDS011;943;51.568;6.998;2023-05-07T05:38:36;17.87;;;15.97;;
1885;SDS011;943;51.568;6.998;2023-05-07T05:41:05;19.50;;;16.80;;
1885;SDS011;943;51.568;6.998;2023-05-07T05:43:33;19.40;;;14.77;;
1885;SDS011;943;51.568;6.998;2023-05-07T05:46:01;16.60;;;14.40;;
1885;SDS011;943;51.568;6.998;2023-05-07T05:48:31;17.23;;;14.70;;
1885;SDS011;943;51.568;6.998;2023-05-07T05:51:00;14.87;;;13.30;;
1885;SDS011;943;51.568;6.998;2023-05-07T05:53:28;16.57;;;11.23;;
1885;SDS011;943;51.568;6.998;2023-05-07T05:55:56;11.90;;;10.63;;
1885;SDS011;943;51.568;6.998;2023-05-07T05:58:23;11.93;;;10.00;;
1885;SDS011;943;51.568;6.998;2023-05-07T06:00:56;11.23;;;9.20;;
1885;SDS011;943;51.568;6.998;2023-05-07T06:03:26;10.83;;;9.37;;
1885;SDS011;943;51.568;6.998;2023-05-07T06:05:57;9.87;;;8.00;;
1885;SDS011;943;51.568;6.998;2023-05-07T06:08:28;9.50;;;8.50;;
1885;SDS011;943;51.568;6.998;2023-05-07T06:10:58;10.47;;;8.30;;
1885;SDS011;943;51.568;6.998;2023-05-07T06:13:29;10.03;;;7.93;;
1885;SDS011;943;51.568;6.998;2023-05-07T06:15:57;9.03;;;8.13;;
1885;SDS011;943;51.568;6.998;2023-05-07T06:18:24;8.97;;;7.47;;
1885;SDS011;943;51.568;6.998;2023-05-07T06:20:53;13.40;;;7.87;;
1885;SDS011;943;51.568;6.998;2023-05-07T06:23:28;8.47;;;6.60;;
1885;SDS011;943;51.568;6.998;2023-05-07T06:25:55;7.57;;;6.80;;
1885;SDS011;943;51.568;6.998;2023-05-07T06:28:28;7.53;;;6.83;;
1885;SDS011;943;51.568;6.998;2023-05-07T06:31:11;8.90;;;7.33;;
1885;SDS011;943;51.568;6.998;2023-05-07T06:34:05;7.83;;;6.93;;
1885;SDS011;943;51.568;6.998;2023-05-07T06:36:36;13.17;;;8.77;;
1885;SDS011;943;51.568;6.998;2023-05-07T06:39:23;8.27;;;7.40;;
1885;SDS011;943;51.568;6.998;2023-05-07T06:41:51;9.60;;;8.60;;
1885;SDS011;943;51.568;6.998;2023-05-07T06:44:24;9.27;;;8.00;;
1885;SDS011;943;51.568;6.998;2023-05-07T06:47:06;9.40;;;8.07;;
1885;SDS011;943;51.568;6.998;2023-05-07T06:49:37;8.50;;;7.60;;
1885;SDS011;943;51.568;6.998;2023-05-07T06:52:05;9.30;;;8.00;;
1885;SDS011;943;51.568;6.998;2023-05-07T06:54:33;8.63;;;7.73;;
1885;SDS011;943;51.568;6.998;2023-05-07T06:57:00;9.37;;;7.60;;
1885;SDS011;943;51.568;6.998;2023-05-07T06:59:29;8.03;;;7.23;;
1885;SDS011;943;51.568;6.998;2023-05-07T07:01:58;11.33;;;7.60;;
1885;SDS011;943;51.568;6.998;2023-05-07T07:04:26;8.30;;;6.80;;
1885;SDS011;943;51.568;6.998;2023-05-07T07:07:01;8.83;;;6.93;;
1885;SDS011;943;51.568;6.998;2023-05-07T07:09:28;12.67;;;7.37;;
1885;SDS011;943;51.568;6.998;2023-05-07T07:11:57;7.57;;;6.43;;
1885;SDS011;943;51.568;6.998;2023-05-07T07:14:25;8.70;;;7.20;;
1885;SDS011;943;51.568;6.998;2023-05-07T07:16:53;9.70;;;6.40;;
1885;SDS011;943;51.568;6.998;2023-05-07T07:19:22;7.93;;;6.60;;
1885;SDS011;943;51.568;6.998;2023-05-07T07:21:53;7.33;;;6.63;;
1885;SDS011;943;51.568;6.998;2023-05-07T07:24:21;9.00;;;7.60;;
1885;SDS011;943;51.568;6.998;2023-05-07T07:26:53;8.90;;;7.17;;
1885;SDS011;943;51.568;6.998;2023-05-07T07:29:23;7.60;;;6.60;;
1885;SDS011;943;51.568;6.998;2023-05-07T07:31:53;8.33;;;7.43;;
1885;SDS011;943;51.568;6.998;2023-05-07T07:34:22;8.50;;;7.13;;
1885;SDS011;943;51.568;6.998;2023-05-07T07:36:50;10.87;;;8.37;;
1885;SDS011;943;51.568;6.998;2023-05-07T07:39:18;14.33;;;10.63;;
1885;SDS011;943;51.568;6.998;2023-05-07T07:41:49;13.80;;;8.87;;
1885;SDS011;943;51.568;6.998;2023-05-07T07:44:18;16.60;;;10.10;;
1885;SDS011;943;51.568;6.998;2023-05-07T07:46:51;9.73;;;7.47;;
1885;SDS011;943;51.568;6.998;2023-05-07T07:49:20;11.60;;;8.27;;
1885;SDS011;943;51.568;6.998;2023-05-07T07:51:48;8.80;;;6.20;;
1885;SDS011;943;51.568;6.998;2023-05-07T07:54:17;7.63;;;6.03;;
1885;SDS011;943;51.568;6.998;2023-05-07T07:56:45;9.30;;;7.00;;
1885;SDS011;943;51.568;6.998;2023-05-07T07:59:13;5.93;;;5.33;;
1885;SDS011;943;51.568;6.998;2023-05-07T08:01:46;7.00;;;6.30;;
1885;SDS011;943;51.568;6.998;2023-05-07T08:04:20;7.17;;;6.40;;
1885;SDS011;943;51.568;6.998;2023-05-07T08:06:50;9.00;;;7.40;;
1885;SDS011;943;51.568;6.998;2023-05-07T08:09:18;12.77;;;8.50;;
1885;SDS011;943;51.568;6.998;2023-05-07T08:11:47;9.13;;;7.93;;
1885;SDS011;943;51.568;6.998;2023-05-07T08:14:15;11.77;;;8.77;;
1885;SDS011;943;51.568;6.998;2023-05-07T08:16:46;9.73;;;7.93;;
1885;SDS011;943;51.568;6.998;2023-05-07T08:19:14;9.60;;;8.60;;
1885;SDS011;943;51.568;6.998;2023-05-07T08:21:43;11.50;;;9.70;;
1885;SDS011;943;51.568;6.998;2023-05-07T08:24:11;12.47;;;9.70;;
1885;SDS011;943;51.568;6.998;2023-05-07T08:26:39;14.00;;;11.43;;
1885;SDS011;943;51.568;6.998;2023-05-07T08:29:08;10.83;;;8.47;;
1885;SDS011;943;51.568;6.998;2023-05-07T08:31:36;11.00;;;9.80;;
1885;SDS011;943;51.568;6.998;2023-05-07T08:34:06;9.93;;;8.93;;
1885;SDS011;943;51.568;6.998;2023-05-07T08:36:39;15.43;;;10.20;;
1885;SDS011;943;51.568;6.998;2023-05-07T08:39:10;15.53;;;10.27;;
1885;SDS011;943;51.568;6.998;2023-05-07T08:41:38;9.93;;;8.93;;
1885;SDS011;943;51.568;6.998;2023-05-07T08:44:07;12.03;;;9.70;;
1885;SDS011;943;51.568;6.998;2023-05-07T08:46:44;16.73;;;9.83;;
1885;SDS011;943;51.568;6.998;2023-05-07T08:49:16;11.00;;;9.83;;
1885;SDS011;943;51.568;6.998;2023-05-07T08:51:44;12.33;;;10.63;;
1885;SDS011;943;51.568;6.998;2023-05-07T08:54:15;14.90;;;9.93;;
1885;SDS011;943;51.568;6.998;2023-05-07T08:56:44;11.13;;;10.00;;
1885;SDS011;943;51.568;6.998;2023-05-07T08:59:12;12.90;;;10.13;;
1885;SDS011;943;51.568;6.998;2023-05-07T09:01:42;14.30;;;9.03;;
1885;SDS011;943;51.568;6.998;2023-05-07T09:04:11;13.77;;;10.10;;
1885;SDS011;943;51.568;6.998;2023-05-07T09:06:40;13.83;;;9.60;;
1885;SDS011;943;51.568;6.998;2023-05-07T09:09:11;12.50;;;10.13;;
1885;SDS011;943;51.568;6.998;2023-05-07T09:11:54;14.57;;;10.70;;
1885;SDS011;943;51.568;6.998;2023-05-07T09:14:31;12.17;;;10.40;;
1885;SDS011;943;51.568;6.998;2023-05-07T09:17:00;14.63;;;11.00;;
1885;SDS011;943;51.568;6.998;2023-05-07T09:19:28;13.80;;;10.37;;
1885;SDS011;943;51.568;6.998;2023-05-07T09:22:01;12.40;;;11.10;;
1885;SDS011;943;51.568;6.998;2023-05-07T09:24:47;11.90;;;10.33;;
1885;SDS011;943;51.568;6.998;2023-05-07T09:27:21;12.57;;;11.30;;
1885;SDS011;943;51.568;6.998;2023-05-07T09:29:49;12.47;;;10.30;;
1885;SDS011;943;51.568;6.998;2023-05-07T09:32:17;11.83;;;10.57;;
1885;SDS011;943;51.568;6.998;2023-05-07T09:34:45;11.83;;;10.23;;
1885;SDS011;943;51.568;6.998;2023-05-07T09:37:15;13.70;;;10.67;;
1885;SDS011;943;51.568;6.998;2023-05-07T09:39:45;11.07;;;9.53;;
1885;SDS011;943;51.568;6.998;2023-05-07T09:42:23;10.70;;;9.70;;
1885;SDS011;943;51.568;6.998;2023-05-07T09:44:56;10.60;;;9.50;;
1885;SDS011;943;51.568;6.998;2023-05-07T09:47:32;10.90;;;8.90;;
1885;SDS011;943;51.568;6.998;2023-05-07T09:50:05;8.70;;;7.73;;
1885;SDS011;943;51.568;6.998;2023-05-07T09:52:39;7.80;;;7.00;;
1885;SDS011;943;51.568;6.998;2023-05-07T09:55:10;11.13;;;8.30;;
1885;SDS011;943;51.568;6.998;2023-05-07T09:57:40;9.27;;;8.13;;
1885;SDS011;943;51.568;6.998;2023-05-07T10:00:12;11.10;;;8.67;;
1885;SDS011;943;51.568;6.998;2023-05-07T10:02:48;9.53;;;8.53;;
1885;SDS011;943;51.568;6.998;2023-05-07T10:05:31;9.10;;;8.00;;
1885;SDS011;943;51.568;6.998;2023-05-07T10:08:00;9.27;;;7.50;;
1885;SDS011;943;51.568;6.998;2023-05-07T10:10:33;9.70;;;8.10;;
1885;SDS011;943;51.568;6.998;2023-05-07T10:13:03;11.00;;;7.53;;
1885;SDS011;943;51.568;6.998;2023-05-07T10:15:39;8.97;;;7.13;;
1885;SDS011;943;51.568;6.998;2023-05-07T10:18:08;9.83;;;7.57;;
1885;SDS011;943;51.568;6.998;2023-05-07T10:20:40;7.73;;;5.60;;
1885;SDS011;943;51.568;6.998;2023-05-07T10:23:14;7.67;;;5.60;;
1885;SDS011;943;51.568;6.998;2023-05-07T10:25:56;6.97;;;5.70;;
1885;SDS011;943;51.568;6.998;2023-05-07T10:28:32;5.80;;;5.20;;
1885;SDS011;943;51.568;6.998;2023-05-07T10:34:35;9.50;;;6.27;;
1885;SDS011;943;51.568;6.998;2023-05-07T10:37:12;9.43;;;5.87;;
1885;SDS011;943;51.568;6.998;2023-05-07T10:39:42;12.53;;;7.73;;
1885;SDS011;943;51.568;6.998;2023-05-07T10:42:11;8.43;;;7.00;;
1885;SDS011;943;51.568;6.998;2023-05-07T10:44:47;7.20;;;5.70;;
1885;SDS011;943;51.568;6.998;2023-05-07T10:47:22;5.43;;;4.00;;
1885;SDS011;943;51.568;6.998;2023-05-07T10:52:38;6.27;;;4.70;;
1885;SDS011;943;51.568;6.998;2023-05-07T11:04:40;5.90;;;4.17;;
1885;SDS011;943;51.568;6.998;2023-05-07T11:07:24;6.17;;;4.50;;
1885;SDS011;943;51.568;6.998;2023-05-07T11:10:03;6.10;;;4.47;;
1885;SDS011;943;51.568;6.998;2023-05-07T11:12:54;9.47;;;3.47;;
1885;SDS011;943;51.568;6.998;2023-05-07T11:15:40;3.90;;;3.47;;
1885;SDS011;943;51.568;6.998;2023-05-07T11:18:21;4.30;;;3.20;;
1885;SDS011;943;51.568;6.998;2023-05-07T11:20:56;5.03;;;3.80;;
1885;SDS011;943;51.568;6.998;2023-05-07T11:26:23;4.73;;;3.30;;
1885;SDS011;943;51.568;6.998;2023-05-07T11:28:53;4.83;;;4.10;;
1885;SDS011;943;51.568;6.998;2023-05-07T11:31:26;5.20;;;3.80;;
1885;SDS011;943;51.568;6.998;2023-05-07T11:33:59;5.00;;;3.83;;
1885;SDS011;943;51.568;6.998;2023-05-07T11:36:30;5.37;;;3.97;;
1885;SDS011;943;51.568;6.998;2023-05-07T11:39:02;5.73;;;3.30;;
1885;SDS011;943;51.568;6.998;2023-05-07T11:41:33;5.10;;;3.37;;
1885;SDS011;943;51.568;6.998;2023-05-07T11:44:09;6.90;;;3.87;;
1885;SDS011;943;51.568;6.998;2023-05-07T11:46:36;6.07;;;3.70;;
1885;SDS011;943;51.568;6.998;2023-05-07T11:49:11;6.40;;;3.17;;
1885;SDS011;943;51.568;6.998;2023-05-07T11:51:39;3.80;;;3.00;;
1885;SDS011;943;51.568;6.998;2023-05-07T11:54:08;5.60;;;4.00;;
1885;SDS011;943;51.568;6.998;2023-05-07T11:56:37;4.03;;;3.40;;
1885;SDS011;943;51.568;6.998;2023-05-07T11:59:05;5.23;;;3.37;;
1885;SDS011;943;51.568;6.998;2023-05-07T12:01:34;4.63;;;3.40;;
1885;SDS011;943;51.568;6.998;2023-05-07T12:04:03;6.33;;;4.13;;
1885;SDS011;943;51.568;6.998;2023-05-07T12:06:35;5.40;;;3.77;;
1885;SDS011;943;51.568;6.998;2023-05-07T12:09:05;4.53;;;4.00;;
1885;SDS011;943;51.568;6.998;2023-05-07T12:11:37;4.60;;;4.10;;
1885;SDS011;943;51.568;6.998;2023-05-07T12:14:06;5.70;;;4.10;;
1885;SDS011;943;51.568;6.998;2023-05-07T12:16:38;6.10;;;4.27;;
1885;SDS011;943;51.568;6.998;2023-05-07T12:19:08;6.50;;;3.93;;
1885;SDS011;943;51.568;6.998;2023-05-07T12:21:41;6.57;;;5.00;;
1885;SDS011;943;51.568;6.998;2023-05-07T12:24:09;6.53;;;4.40;;
1885;SDS011;943;51.568;6.998;2023-05-07T12:26:38;6.93;;;4.03;;
1885;SDS011;943;51.568;6.998;2023-05-07T12:29:07;7.60;;;3.67;;
1885;SDS011;943;51.568;6.998;2023-05-07T12:31:35;4.80;;;3.50;;
1885;SDS011;943;51.568;6.998;2023-05-07T12:34:02;5.17;;;3.90;;
1885;SDS011;943;51.568;6.998;2023-05-07T12:36:40;5.20;;;4.10;;
1885;SDS011;943;51.568;6.998;2023-05-07T12:39:08;6.60;;;3.27;;
1885;SDS011;943;51.568;6.998;2023-05-07T12:41:52;7.73;;;4.50;;
1885;SDS011;943;51.568;6.998;2023-05-07T12:44:29;5.30;;;4.50;;
1885;SDS011;943;51.568;6.998;2023-05-07T12:47:02;6.93;;;4.87;;
1885;SDS011;943;51.568;6.998;2023-05-07T12:49:30;5.50;;;5.00;;
1885;SDS011;943;51.568;6.998;2023-05-07T12:52:01;6.87;;;5.80;;
1885;SDS011;943;51.568;6.998;2023-05-07T12:54:32;8.73;;;7.83;;
1885;SDS011;943;51.568;6.998;2023-05-07T12:57:06;8.40;;;6.70;;
1885;SDS011;943;51.568;6.998;2023-05-07T12:59:39;10.13;;;6.50;;
1885;SDS011;943;51.568;6.998;2023-05-07T13:02:08;7.83;;;6.50;;
1885;SDS011;943;51.568;6.998;2023-05-07T13:04:38;7.93;;;6.03;;
1885;SDS011;943;51.568;6.998;2023-05-07T13:07:06;7.93;;;6.03;;
1885;SDS011;943;51.568;6.998;2023-05-07T13:09:34;10.37;;;7.30;;
1885;SDS011;943;51.568;6.998;2023-05-07T13:12:03;7.33;;;6.40;;
1885;SDS011;943;51.568;6.998;2023-05-07T13:14:32;9.23;;;6.90;;
1885;SDS011;943;51.568;6.998;2023-05-07T13:17:00;9.40;;;6.83;;
1885;SDS011;943;51.568;6.998;2023-05-07T13:19:28;8.97;;;7.67;;
1885;SDS011;943;51.568;6.998;2023-05-07T13:21:57;9.27;;;7.97;;
1885;SDS011;943;51.568;6.998;2023-05-07T13:24:24;11.20;;;8.63;;
1885;SDS011;943;51.568;6.998;2023-05-07T13:26:52;9.87;;;7.73;;
1885;SDS011;943;51.568;6.998;2023-05-07T13:29:19;9.97;;;8.10;;
1885;SDS011;943;51.568;6.998;2023-05-07T13:31:56;9.77;;;7.63;;
1885;SDS011;943;51.568;6.998;2023-05-07T13:34:25;9.60;;;7.67;;
1885;SDS011;943;51.568;6.998;2023-05-07T13:36:52;8.37;;;6.73;;
1885;SDS011;943;51.568;6.998;2023-05-07T13:39:20;9.40;;;7.37;;
1885;SDS011;943;51.568;6.998;2023-05-07T13:41:48;10.57;;;8.53;;
1885;SDS011;943;51.568;6.998;2023-05-07T13:44:16;11.20;;;8.33;;
1885;SDS011;943;51.568;6.998;2023-05-07T13:46:44;10.50;;;9.10;;
1885;SDS011;943;51.568;6.998;2023-05-07T13:49:11;11.23;;;9.17;;
1885;SDS011;943;51.568;6.998;2023-05-07T13:51:39;10.57;;;9.47;;
1885;SDS011;943;51.568;6.998;2023-05-07T13:54:07;12.57;;;9.30;;
1885;SDS011;943;51.568;6.998;2023-05-07T13:56:35;10.13;;;9.03;;
1885;SDS011;943;51.568;6.998;2023-05-07T13:59:03;11.00;;;9.40;;
1885;SDS011;943;51.568;6.998;2023-05-07T14:01:31;12.17;;;9.70;;
1885;SDS011;943;51.568;6.998;2023-05-07T14:03:58;9.67;;;8.57;;
1885;SDS011;943;51.568;6.998;2023-05-07T14:06:26;12.93;;;9.87;;
1885;SDS011;943;51.568;6.998;2023-05-07T14:08:54;11.80;;;9.20;;
1885;SDS011;943;51.568;6.998;2023-05-07T14:11:24;11.97;;;10.13;;
1885;SDS011;943;51.568;6.998;2023-05-07T14:13:52;13.50;;;11.53;;
1885;SDS011;943;51.568;6.998;2023-05-07T14:16:19;14.40;;;11.03;;
1885;SDS011;943;51.568;6.998;2023-05-07T14:18:47;14.03;;;12.27;;
1885;SDS011;943;51.568;6.998;2023-05-07T14:21:15;17.03;;;15.23;;
1885;SDS011;943;51.568;6.998;2023-05-07T14:23:42;17.30;;;15.37;;
1885;SDS011;943;51.568;6.998;2023-05-07T14:26:10;20.57;;;15.27;;
1885;SDS011;943;51.568;6.998;2023-05-07T14:28:38;38.97;;;30.10;;
1885;SDS011;943;51.568;6.998;2023-05-07T14:31:12;22.13;;;14.40;;
1885;SDS011;943;51.568;6.998;2023-05-07T14:33:40;13.73;;;10.80;;
1885;SDS011;943;51.568;6.998;2023-05-07T14:36:08;14.07;;;10.47;;
1885;SDS011;943;51.568;6.998;2023-05-07T14:38:35;12.60;;;10.90;;
1885;SDS011;943;51.568;6.998;2023-05-07T14:41:03;13.67;;;10.90;;
1885;SDS011;943;51.568;6.998;2023-05-07T14:43:31;14.30;;;11.87;;
1885;SDS011;943;51.568;6.998;2023-05-07T14:45:58;13.90;;;11.40;;
1885;SDS011;943;51.568;6.998;2023-05-07T14:48:27;13.47;;;11.07;;
1885;SDS011;943;51.568;6.998;2023-05-07T14:50:55;12.53;;;11.20;;
1885;SDS011;943;51.568;6.998;2023-05-07T14:53:23;11.57;;;9.10;;
1885;SDS011;943;51.568;6.998;2023-05-07T14:55:51;12.47;;;8.43;;
1885;SDS011;943;51.568;6.998;2023-05-07T14:58:19;11.17;;;9.27;;
1885;SDS011;943;51.568;6.998;2023-05-07T15:00:49;22.67;;;10.83;;
1885;SDS011;943;51.568;6.998;2023-05-07T15:03:16;11.50;;;9.63;;
1885;SDS011;943;51.568;6.998;2023-05-07T15:05:44;11.10;;;9.50;;
1885;SDS011;943;51.568;6.998;2023-05-07T15:08:13;12.10;;;9.97;;
1885;SDS011;943;51.568;6.998;2023-05-07T15:10:42;13.60;;;11.10;;
1885;SDS011;943;51.568;6.998;2023-05-07T15:13:10;12.43;;;11.13;;
1885;SDS011;943;51.568;6.998;2023-05-07T15:15:42;14.40;;;9.97;;
1885;SDS011;943;51.568;6.998;2023-05-07T15:18:11;18.07;;;10.70;;
1885;SDS011;943;51.568;6.998;2023-05-07T15:20:40;11.67;;;10.47;;
1885;SDS011;943;51.568;6.998;2023-05-07T15:23:09;13.53;;;10.13;;
1885;SDS011;943;51.568;6.998;2023-05-07T15:25:40;10.77;;;9.10;;
1885;SDS011;943;51.568;6.998;2023-05-07T15:28:07;11.77;;;9.70;;
1885;SDS011;943;51.568;6.998;2023-05-07T15:30:35;9.87;;;8.83;;
1885;SDS011;943;51.568;6.998;2023-05-07T15:33:03;13.47;;;10.10;;
1885;SDS011;943;51.568;6.998;2023-05-07T15:35:32;11.70;;;9.53;;
1885;SDS011;943;51.568;6.998;2023-05-07T15:38:00;10.10;;;9.00;;
1885;SDS011;943;51.568;6.998;2023-05-07T15:40:30;13.33;;;9.43;;
1885;SDS011;943;51.568;6.998;2023-05-07T15:43:00;10.40;;;8.90;;
1885;SDS011;943;51.568;6.998;2023-05-07T15:45:29;11.33;;;9.07;;
1885;SDS011;943;51.568;6.998;2023-05-07T15:47:56;11.20;;;8.87;;
1885;SDS011;943;51.568;6.998;2023-05-07T15:50:24;10.73;;;9.57;;